sensor_id;sensor_type;location;lat;lon;timestamp;P1;durP1;ratioP1;P2;durP2;ratioP2
68843;SDS011;55850;51.244;6.824;2022-07-11T00:02:29;5.93;;;2.57;;
68843;SDS011;55850;51.244;6.824;2022-07-11T00:07:34;4.82;;;2.28;;
68843;SDS011;55850;51.244;6.824;2022-07-11T00:12:42;5.85;;;2.25;;
68843;SDS011;55850;51.244;6.824;2022-07-11T00:17:48;5.37;;;2.60;;
68843;SDS011;55850;51.244;6.824;2022-07-11T00:22:54;2.58;;;2.10;;
68843;SDS011;55850;51.244;6.824;2022-07-11T00:28:02;4.70;;;2.30;;
68843;SDS011;55850;51.244;6.824;2022-07-11T00:33:08;6.07;;;2.40;;
68843;SDS011;55850;51.244;6.824;2022-07-11T00:38:13;7.20;;;2.55;;
68843;SDS011;55850;51.244;6.824;2022-07-11T00:43:28;5.53;;;2.10;;
68843;SDS011;55850;51.244;6.824;2022-07-11T00:48:37;3.07;;;2.40;;
68843;SDS011;55850;51.244;6.824;2022-07-11T00:53:43;4.23;;;2.30;;
68843;SDS011;55850;51.244;6.824;2022-07-11T00:58:51;4.97;;;2.20;;
68843;SDS011;55850;51.244;6.824;2022-07-11T01:03:57;5.75;;;2.10;;
68843;SDS011;55850;51.244;6.824;2022-07-11T01:09:03;3.17;;;1.80;;
68843;SDS011;55850;51.244;6.824;2022-07-11T01:14:11;3.63;;;2.50;;
68843;SDS011;55850;51.244;6.824;2022-07-11T01:19:17;4.03;;;2.20;;
68843;SDS011;55850;51.244;6.824;2022-07-11T01:24:25;3.50;;;1.90;;
68843;SDS011;55850;51.244;6.824;2022-07-11T01:29:31;4.10;;;2.00;;
68843;SDS011;55850;51.244;6.824;2022-07-11T01:34:36;4.35;;;2.85;;
68843;SDS011;55850;51.244;6.824;2022-07-11T01:39:44;5.13;;;2.30;;
68843;SDS011;55850;51.244;6.824;2022-07-11T01:44:50;4.33;;;2.30;;
68843;SDS011;55850;51.244;6.824;2022-07-11T01:49:55;5.72;;;2.50;;
68843;SDS011;55850;51.244;6.824;2022-07-11T01:55:04;5.45;;;1.95;;
68843;SDS011;55850;51.244;6.824;2022-07-11T02:00:10;4.10;;;2.33;;
68843;SDS011;55850;51.244;6.824;2022-07-11T02:05:16;7.28;;;2.75;;
68843;SDS011;55850;51.244;6.824;2022-07-11T02:10:24;3.70;;;1.80;;
68843;SDS011;55850;51.244;6.824;2022-07-11T02:15:31;9.83;;;2.53;;
68843;SDS011;55850;51.244;6.824;2022-07-11T02:20:37;5.03;;;2.10;;
68843;SDS011;55850;51.244;6.824;2022-07-11T02:25:46;3.92;;;2.17;;
68843;SDS011;55850;51.244;6.824;2022-07-11T02:30:51;3.53;;;2.10;;
68843;SDS011;55850;51.244;6.824;2022-07-11T02:35:57;3.95;;;2.00;;
68843;SDS011;55850;51.244;6.824;2022-07-11T02:41:05;4.50;;;2.05;;
68843;SDS011;55850;51.244;6.824;2022-07-11T02:46:10;6.37;;;2.20;;
68843;SDS011;55850;51.244;6.824;2022-07-11T02:51:15;4.97;;;2.50;;
68843;SDS011;55850;51.244;6.824;2022-07-11T02:56:24;4.18;;;2.13;;
68843;SDS011;55850;51.244;6.824;2022-07-11T03:01:30;2.40;;;1.90;;
68843;SDS011;55850;51.244;6.824;2022-07-11T03:06:36;6.43;;;3.23;;
68843;SDS011;55850;51.244;6.824;2022-07-11T03:11:44;5.82;;;2.50;;
68843;SDS011;55850;51.244;6.824;2022-07-11T03:16:50;2.67;;;2.22;;
68843;SDS011;55850;51.244;6.824;2022-07-11T03:21:56;6.57;;;2.47;;
68843;SDS011;55850;51.244;6.824;2022-07-11T03:27:04;5.28;;;2.38;;
68843;SDS011;55850;51.244;6.824;2022-07-11T03:32:14;2.72;;;2.30;;
68843;SDS011;55850;51.244;6.824;2022-07-11T03:37:29;2.97;;;2.17;;
68843;SDS011;55850;51.244;6.824;2022-07-11T03:42:37;4.17;;;2.30;;
68843;SDS011;55850;51.244;6.824;2022-07-11T03:47:42;4.78;;;2.40;;
68843;SDS011;55850;51.244;6.824;2022-07-11T03:52:49;5.38;;;2.30;;
68843;SDS011;55850;51.244;6.824;2022-07-11T03:57:57;6.43;;;2.60;;
68843;SDS011;55850;51.244;6.824;2022-07-11T04:03:03;4.45;;;2.42;;
68843;SDS011;55850;51.244;6.824;2022-07-11T04:08:08;3.20;;;2.13;;
68843;SDS011;55850;51.244;6.824;2022-07-11T04:13:16;6.00;;;2.30;;
68843;SDS011;55850;51.244;6.824;2022-07-11T04:18:23;5.00;;;2.20;;
68843;SDS011;55850;51.244;6.824;2022-07-11T04:23:29;4.10;;;2.40;;
68843;SDS011;55850;51.244;6.824;2022-07-11T04:28:36;4.60;;;2.40;;
68843;SDS011;55850;51.244;6.824;2022-07-11T04:33:42;2.90;;;2.37;;
68843;SDS011;55850;51.244;6.824;2022-07-11T04:38:47;3.75;;;2.15;;
68843;SDS011;55850;51.244;6.824;2022-07-11T04:43:55;5.28;;;2.05;;
68843;SDS011;55850;51.244;6.824;2022-07-11T04:49:01;5.80;;;2.30;;
68843;SDS011;55850;51.244;6.824;2022-07-11T04:54:06;2.97;;;1.50;;
68843;SDS011;55850;51.244;6.824;2022-07-11T04:59:14;2.88;;;1.38;;
68843;SDS011;55850;51.244;6.824;2022-07-11T05:04:20;2.13;;;1.40;;
68843;SDS011;55850;51.244;6.824;2022-07-11T05:09:25;1.80;;;0.90;;
68843;SDS011;55850;51.244;6.824;2022-07-11T05:19:41;1.47;;;1.00;;
68843;SDS011;55850;51.244;6.824;2022-07-11T05:24:46;3.97;;;1.07;;
68843;SDS011;55850;51.244;6.824;2022-07-11T05:29:55;1.92;;;0.98;;
68843;SDS011;55850;51.244;6.824;2022-07-11T05:35:00;1.55;;;0.85;;
68843;SDS011;55850;51.244;6.824;2022-07-11T05:40:07;1.10;;;0.93;;
68843;SDS011;55850;51.244;6.824;2022-07-11T05:45:16;2.05;;;0.80;;
68843;SDS011;55850;51.244;6.824;2022-07-11T05:50:21;1.50;;;0.77;;
68843;SDS011;55850;51.244;6.824;2022-07-11T05:55:27;1.23;;;0.50;;
68843;SDS011;55850;51.244;6.824;2022-07-11T06:00:35;2.53;;;0.60;;
68843;SDS011;55850;51.244;6.824;2022-07-11T06:05:40;1.38;;;1.00;;
68843;SDS011;55850;51.244;6.824;2022-07-11T06:10:45;1.10;;;0.70;;
68843;SDS011;55850;51.244;6.824;2022-07-11T06:15:53;3.20;;;1.20;;
68843;SDS011;55850;51.244;6.824;2022-07-11T06:20:59;2.28;;;1.45;;
68843;SDS011;55850;51.244;6.824;2022-07-11T06:26:05;1.88;;;1.20;;
68843;SDS011;55850;51.244;6.824;2022-07-11T06:31:13;3.30;;;1.17;;
68843;SDS011;55850;51.244;6.824;2022-07-11T06:36:18;1.52;;;1.10;;
68843;SDS011;55850;51.244;6.824;2022-07-11T06:41:24;1.00;;;0.70;;
68843;SDS011;55850;51.244;6.824;2022-07-11T06:46:33;1.73;;;1.10;;
68843;SDS011;55850;51.244;6.824;2022-07-11T06:51:38;1.88;;;1.20;;
68843;SDS011;55850;51.244;6.824;2022-07-11T06:56:43;1.33;;;1.00;;
68843;SDS011;55850;51.244;6.824;2022-07-11T07:01:51;2.37;;;1.23;;
68843;SDS011;55850;51.244;6.824;2022-07-11T07:06:57;4.27;;;1.80;;
68843;SDS011;55850;51.244;6.824;2022-07-11T07:12:04;2.25;;;1.38;;
68843;SDS011;55850;51.244;6.824;2022-07-11T07:17:13;1.50;;;1.27;;
68843;SDS011;55850;51.244;6.824;2022-07-11T07:22:19;2.23;;;1.60;;
68843;SDS011;55850;51.244;6.824;2022-07-11T07:27:25;2.95;;;1.30;;
68843;SDS011;55850;51.244;6.824;2022-07-11T07:32:32;4.18;;;1.90;;
68843;SDS011;55850;51.244;6.824;2022-07-11T07:37:38;2.83;;;2.30;;
68843;SDS011;55850;51.244;6.824;2022-07-11T07:42:43;4.18;;;2.42;;
68843;SDS011;55850;51.244;6.824;2022-07-11T07:47:51;4.93;;;2.92;;
68843;SDS011;55850;51.244;6.824;2022-07-11T07:52:56;5.90;;;3.37;;
68843;SDS011;55850;51.244;6.824;2022-07-11T07:58:02;5.10;;;3.47;;
68843;SDS011;55850;51.244;6.824;2022-07-11T08:03:10;7.30;;;5.78;;
68843;SDS011;55850;51.244;6.824;2022-07-11T08:08:15;7.25;;;5.35;;
68843;SDS011;55850;51.244;6.824;2022-07-11T08:13:21;8.43;;;5.50;;
68843;SDS011;55850;51.244;6.824;2022-07-11T08:18:30;11.75;;;5.63;;
68843;SDS011;55850;51.244;6.824;2022-07-11T08:23:36;7.65;;;5.53;;
68843;SDS011;55850;51.244;6.824;2022-07-11T08:28:42;7.43;;;5.03;;
68843;SDS011;55850;51.244;6.824;2022-07-11T08:33:50;6.10;;;4.50;;
68843;SDS011;55850;51.244;6.824;2022-07-11T08:38:56;6.18;;;4.68;;
68843;SDS011;55850;51.244;6.824;2022-07-11T08:44:01;6.00;;;4.10;;
68843;SDS011;55850;51.244;6.824;2022-07-11T08:49:09;5.80;;;4.13;;
68843;SDS011;55850;51.244;6.824;2022-07-11T08:54:16;6.15;;;4.28;;
68843;SDS011;55850;51.244;6.824;2022-07-11T08:59:22;8.13;;;5.10;;
68843;SDS011;55850;51.244;6.824;2022-07-11T09:04:33;6.60;;;4.70;;
68843;SDS011;55850;51.244;6.824;2022-07-11T09:09:39;15.45;;;5.47;;
68843;SDS011;55850;51.244;6.824;2022-07-11T09:14:46;6.28;;;5.20;;
68843;SDS011;55850;51.244;6.824;2022-07-11T09:19:56;7.20;;;5.20;;
68843;SDS011;55850;51.244;6.824;2022-07-11T09:25:03;7.95;;;4.93;;
68843;SDS011;55850;51.244;6.824;2022-07-11T09:30:23;7.13;;;5.90;;
68843;SDS011;55850;51.244;6.824;2022-07-11T09:35:33;16.37;;;10.97;;
68843;SDS011;55850;51.244;6.824;2022-07-11T09:40:42;17.60;;;11.87;;
68843;SDS011;55850;51.244;6.824;2022-07-11T09:45:48;19.65;;;14.70;;
68843;SDS011;55850;51.244;6.824;2022-07-11T09:50:57;16.58;;;10.95;;
68843;SDS011;55850;51.244;6.824;2022-07-11T09:56:06;13.80;;;9.03;;
68843;SDS011;55850;51.244;6.824;2022-07-11T10:01:11;12.38;;;9.63;;
68843;SDS011;55850;51.244;6.824;2022-07-11T10:06:21;15.60;;;9.82;;
68843;SDS011;55850;51.244;6.824;2022-07-11T10:11:26;11.43;;;9.40;;
68843;SDS011;55850;51.244;6.824;2022-07-11T10:16:34;11.18;;;7.82;;
68843;SDS011;55850;51.244;6.824;2022-07-11T10:21:53;8.70;;;6.90;;
68843;SDS011;55850;51.244;6.824;2022-07-11T10:27:10;9.57;;;8.17;;
68843;SDS011;55850;51.244;6.824;2022-07-11T10:32:23;12.23;;;8.20;;
68843;SDS011;55850;51.244;6.824;2022-07-11T10:37:32;9.38;;;7.90;;
68843;SDS011;55850;51.244;6.824;2022-07-11T10:42:52;9.40;;;6.70;;
68843;SDS011;55850;51.244;6.824;2022-07-11T10:48:08;7.97;;;6.17;;
68843;SDS011;55850;51.244;6.824;2022-07-11T10:53:20;5.32;;;4.82;;
68843;SDS011;55850;51.244;6.824;2022-07-11T10:58:28;4.40;;;4.00;;
68843;SDS011;55850;51.244;6.824;2022-07-11T11:03:35;4.47;;;3.70;;
68843;SDS011;55850;51.244;6.824;2022-07-11T11:08:46;4.32;;;3.92;;
68843;SDS011;55850;51.244;6.824;2022-07-11T11:25:00;8.03;;;4.27;;
68843;SDS011;55850;51.244;6.824;2022-07-11T11:30:25;5.78;;;5.00;;
68843;SDS011;55850;51.244;6.824;2022-07-11T11:35:30;16.40;;;4.45;;
68843;SDS011;55850;51.244;6.824;2022-07-11T11:40:38;9.17;;;6.10;;
68843;SDS011;55850;51.244;6.824;2022-07-11T11:45:52;6.68;;;5.15;;
68843;SDS011;55850;51.244;6.824;2022-07-11T11:51:00;6.13;;;4.80;;
68843;SDS011;55850;51.244;6.824;2022-07-11T11:56:19;3.80;;;2.60;;
68843;SDS011;55850;51.244;6.824;2022-07-11T12:01:29;2.63;;;1.92;;
68843;SDS011;55850;51.244;6.824;2022-07-11T12:06:36;1.88;;;1.58;;
68843;SDS011;55850;51.244;6.824;2022-07-11T12:11:47;2.43;;;1.37;;
68843;SDS011;55850;51.244;6.824;2022-07-11T12:17:16;1.93;;;1.43;;
68843;SDS011;55850;51.244;6.824;2022-07-11T12:22:28;2.95;;;1.60;;
68843;SDS011;55850;51.244;6.824;2022-07-11T12:27:36;3.17;;;2.33;;
68843;SDS011;55850;51.244;6.824;2022-07-11T12:32:42;4.87;;;3.00;;
68843;SDS011;55850;51.244;6.824;2022-07-11T12:38:07;3.53;;;2.65;;
68843;SDS011;55850;51.244;6.824;2022-07-11T12:43:15;4.13;;;2.75;;
68843;SDS011;55850;51.244;6.824;2022-07-11T12:48:38;3.13;;;2.80;;
68843;SDS011;55850;51.244;6.824;2022-07-11T12:53:44;5.53;;;3.33;;
68843;SDS011;55850;51.244;6.824;2022-07-11T12:58:52;5.97;;;5.00;;
68843;SDS011;55850;51.244;6.824;2022-07-11T13:03:58;7.03;;;4.50;;
68843;SDS011;55850;51.244;6.824;2022-07-11T13:09:04;4.83;;;3.63;;
68843;SDS011;55850;51.244;6.824;2022-07-11T13:14:13;4.82;;;3.38;;
68843;SDS011;55850;51.244;6.824;2022-07-11T13:19:31;4.63;;;2.95;;
68843;SDS011;55850;51.244;6.824;2022-07-11T13:24:39;4.07;;;3.40;;
68843;SDS011;55850;51.244;6.824;2022-07-11T13:29:48;3.80;;;3.30;;
68843;SDS011;55850;51.244;6.824;2022-07-11T13:34:54;3.38;;;3.03;;
68843;SDS011;55850;51.244;6.824;2022-07-11T13:39:59;2.93;;;2.30;;
68843;SDS011;55850;51.244;6.824;2022-07-11T13:45:08;2.63;;;2.42;;
68843;SDS011;55850;51.244;6.824;2022-07-11T13:50:14;2.13;;;1.92;;
68843;SDS011;55850;51.244;6.824;2022-07-11T13:55:22;3.00;;;2.77;;
68843;SDS011;55850;51.244;6.824;2022-07-11T14:00:33;3.50;;;3.20;;
68843;SDS011;55850;51.244;6.824;2022-07-11T14:05:42;3.65;;;2.92;;
68843;SDS011;55850;51.244;6.824;2022-07-11T14:10:48;4.05;;;3.30;;
68843;SDS011;55850;51.244;6.824;2022-07-11T14:15:58;6.77;;;3.37;;
68843;SDS011;55850;51.244;6.824;2022-07-11T14:21:20;5.10;;;4.60;;
68843;SDS011;55850;51.244;6.824;2022-07-11T14:26:26;5.20;;;4.70;;
68843;SDS011;55850;51.244;6.824;2022-07-11T14:31:35;6.47;;;5.83;;
68843;SDS011;55850;51.244;6.824;2022-07-11T14:36:41;8.02;;;7.22;;
68843;SDS011;55850;51.244;6.824;2022-07-11T14:41:50;8.48;;;7.15;;
68843;SDS011;55850;51.244;6.824;2022-07-11T14:47:14;5.10;;;4.60;;
68843;SDS011;55850;51.244;6.824;2022-07-11T14:52:20;8.07;;;5.23;;
68843;SDS011;55850;51.244;6.824;2022-07-11T14:57:26;3.63;;;3.20;;
68843;SDS011;55850;51.244;6.824;2022-07-11T15:02:34;4.93;;;4.00;;
68843;SDS011;55850;51.244;6.824;2022-07-11T15:07:52;3.13;;;2.83;;
68843;SDS011;55850;51.244;6.824;2022-07-11T15:13:09;4.93;;;3.40;;
68843;SDS011;55850;51.244;6.824;2022-07-11T15:18:18;4.85;;;3.38;;
68843;SDS011;55850;51.244;6.824;2022-07-11T15:23:23;5.53;;;3.53;;
68843;SDS011;55850;51.244;6.824;2022-07-11T15:28:29;3.70;;;3.25;;
68843;SDS011;55850;51.244;6.824;2022-07-11T15:33:38;5.90;;;4.00;;
68843;SDS011;55850;51.244;6.824;2022-07-11T15:38:45;4.53;;;3.80;;
68843;SDS011;55850;51.244;6.824;2022-07-11T15:43:52;3.77;;;3.17;;
68843;SDS011;55850;51.244;6.824;2022-07-11T15:49:01;4.93;;;3.22;;
68843;SDS011;55850;51.244;6.824;2022-07-11T15:54:06;3.70;;;3.17;;
68843;SDS011;55850;51.244;6.824;2022-07-11T15:59:12;4.70;;;3.23;;
68843;SDS011;55850;51.244;6.824;2022-07-11T16:04:20;5.63;;;4.20;;
68843;SDS011;55850;51.244;6.824;2022-07-11T16:09:25;6.22;;;4.10;;
68843;SDS011;55850;51.244;6.824;2022-07-11T16:14:30;3.70;;;3.30;;
68843;SDS011;55850;51.244;6.824;2022-07-11T16:19:39;2.83;;;2.38;;
68843;SDS011;55850;51.244;6.824;2022-07-11T16:24:45;2.00;;;1.80;;
68843;SDS011;55850;51.244;6.824;2022-07-11T16:29:51;4.00;;;2.47;;
68843;SDS011;55850;51.244;6.824;2022-07-11T16:34:59;2.67;;;2.30;;
68843;SDS011;55850;51.244;6.824;2022-07-11T16:40:05;5.32;;;3.80;;
68843;SDS011;55850;51.244;6.824;2022-07-11T16:45:23;4.97;;;4.47;;
68843;SDS011;55850;51.244;6.824;2022-07-11T16:50:35;7.17;;;5.47;;
68843;SDS011;55850;51.244;6.824;2022-07-11T16:55:47;5.13;;;4.30;;
68843;SDS011;55850;51.244;6.824;2022-07-11T17:00:53;6.07;;;4.60;;
68843;SDS011;55850;51.244;6.824;2022-07-11T17:06:01;5.83;;;5.27;;
68843;SDS011;55850;51.244;6.824;2022-07-11T17:11:07;9.90;;;5.25;;
68843;SDS011;55850;51.244;6.824;2022-07-11T17:16:12;7.47;;;6.40;;
68843;SDS011;55850;51.244;6.824;2022-07-11T17:21:21;8.10;;;6.83;;
68843;SDS011;55850;51.244;6.824;2022-07-11T17:26:28;9.57;;;6.68;;
68843;SDS011;55850;51.244;6.824;2022-07-11T17:31:34;7.88;;;7.07;;
68843;SDS011;55850;51.244;6.824;2022-07-11T17:36:43;8.03;;;7.23;;
68843;SDS011;55850;51.244;6.824;2022-07-11T17:41:48;7.30;;;6.60;;
68843;SDS011;55850;51.244;6.824;2022-07-11T17:46:53;7.28;;;6.57;;
68843;SDS011;55850;51.244;6.824;2022-07-11T17:52:02;8.38;;;7.18;;
68843;SDS011;55850;51.244;6.824;2022-07-11T17:57:08;7.77;;;6.00;;
68843;SDS011;55850;51.244;6.824;2022-07-11T18:02:13;6.80;;;6.10;;
68843;SDS011;55850;51.244;6.824;2022-07-11T18:07:21;6.53;;;5.60;;
68843;SDS011;55850;51.244;6.824;2022-07-11T18:12:29;5.63;;;5.13;;
68843;SDS011;55850;51.244;6.824;2022-07-11T18:17:36;13.07;;;5.43;;
68843;SDS011;55850;51.244;6.824;2022-07-11T18:22:45;6.43;;;5.60;;
68843;SDS011;55850;51.244;6.824;2022-07-11T18:27:51;6.77;;;5.17;;
68843;SDS011;55850;51.244;6.824;2022-07-11T18:32:57;4.90;;;4.43;;
68843;SDS011;55850;51.244;6.824;2022-07-11T18:38:05;6.30;;;4.80;;
68843;SDS011;55850;51.244;6.824;2022-07-11T18:43:10;4.82;;;4.32;;
68843;SDS011;55850;51.244;6.824;2022-07-11T18:48:16;5.53;;;3.90;;
68843;SDS011;55850;51.244;6.824;2022-07-11T18:53:25;4.82;;;4.32;;
68843;SDS011;55850;51.244;6.824;2022-07-11T18:58:32;6.90;;;4.80;;
68843;SDS011;55850;51.244;6.824;2022-07-11T19:03:37;4.93;;;4.43;;
68843;SDS011;55850;51.244;6.824;2022-07-11T19:08:45;4.85;;;3.88;;
68843;SDS011;55850;51.244;6.824;2022-07-11T19:13:51;4.45;;;4.03;;
68843;SDS011;55850;51.244;6.824;2022-07-11T19:18:56;4.20;;;3.63;;
68843;SDS011;55850;51.244;6.824;2022-07-11T19:24:05;5.17;;;4.00;;
68843;SDS011;55850;51.244;6.824;2022-07-11T19:29:11;4.82;;;3.75;;
68843;SDS011;55850;51.244;6.824;2022-07-11T19:34:16;4.05;;;3.70;;
68843;SDS011;55850;51.244;6.824;2022-07-11T19:39:25;3.93;;;3.53;;
68843;SDS011;55850;51.244;6.824;2022-07-11T19:44:32;7.38;;;3.50;;
68843;SDS011;55850;51.244;6.824;2022-07-11T19:49:38;4.00;;;3.60;;
68843;SDS011;55850;51.244;6.824;2022-07-11T19:54:46;5.63;;;3.90;;
68843;SDS011;55850;51.244;6.824;2022-07-11T20:00:10;4.22;;;3.53;;
68843;SDS011;55850;51.244;6.824;2022-07-11T20:05:16;4.38;;;3.70;;
68843;SDS011;55850;51.244;6.824;2022-07-11T20:10:25;3.93;;;3.53;;
68843;SDS011;55850;51.244;6.824;2022-07-11T20:15:31;3.47;;;3.17;;
68843;SDS011;55850;51.244;6.824;2022-07-11T20:20:38;4.63;;;4.05;;
68843;SDS011;55850;51.244;6.824;2022-07-11T20:25:46;4.10;;;3.70;;
68843;SDS011;55850;51.244;6.824;2022-07-11T20:30:51;4.50;;;3.90;;
68843;SDS011;55850;51.244;6.824;2022-07-11T20:35:57;4.18;;;3.58;;
68843;SDS011;55850;51.244;6.824;2022-07-11T20:41:05;5.35;;;3.72;;
68843;SDS011;55850;51.244;6.824;2022-07-11T20:46:11;6.57;;;4.37;;
68843;SDS011;55850;51.244;6.824;2022-07-11T20:51:16;4.63;;;3.42;;
68843;SDS011;55850;51.244;6.824;2022-07-11T20:56:24;5.65;;;4.00;;
68843;SDS011;55850;51.244;6.824;2022-07-11T21:01:30;3.43;;;3.03;;
68843;SDS011;55850;51.244;6.824;2022-07-11T21:06:35;5.23;;;3.77;;
68843;SDS011;55850;51.244;6.824;2022-07-11T21:11:43;4.30;;;3.33;;
68843;SDS011;55850;51.244;6.824;2022-07-11T21:16:49;3.85;;;3.42;;
68843;SDS011;55850;51.244;6.824;2022-07-11T21:22:02;4.53;;;3.10;;
68843;SDS011;55850;51.244;6.824;2022-07-11T21:27:11;3.38;;;3.05;;
68843;SDS011;55850;51.244;6.824;2022-07-11T21:32:16;3.17;;;2.42;;
68843;SDS011;55850;51.244;6.824;2022-07-11T21:37:22;3.80;;;2.50;;
68843;SDS011;55850;51.244;6.824;2022-07-11T21:42:35;4.75;;;2.28;;
68843;SDS011;55850;51.244;6.824;2022-07-11T21:47:42;2.30;;;2.10;;
68843;SDS011;55850;51.244;6.824;2022-07-11T21:52:47;4.00;;;2.20;;
68843;SDS011;55850;51.244;6.824;2022-07-11T21:57:55;3.03;;;2.07;;
68843;SDS011;55850;51.244;6.824;2022-07-11T22:03:01;3.22;;;1.70;;
68843;SDS011;55850;51.244;6.824;2022-07-11T22:08:07;3.85;;;1.60;;
68843;SDS011;55850;51.244;6.824;2022-07-11T22:13:16;2.80;;;1.77;;
68843;SDS011;55850;51.244;6.824;2022-07-11T22:18:21;2.53;;;1.75;;
68843;SDS011;55850;51.244;6.824;2022-07-11T22:23:27;2.72;;;1.63;;
68843;SDS011;55850;51.244;6.824;2022-07-11T22:28:36;3.03;;;1.97;;
68843;SDS011;55850;51.244;6.824;2022-07-11T22:33:41;2.47;;;1.77;;
68843;SDS011;55850;51.244;6.824;2022-07-11T22:38:47;6.05;;;1.80;;
68843;SDS011;55850;51.244;6.824;2022-07-11T22:43:55;3.90;;;1.80;;
68843;SDS011;55850;51.244;6.824;2022-07-11T22:49:00;5.53;;;1.98;;
68843;SDS011;55850;51.244;6.824;2022-07-11T22:54:06;2.50;;;1.42;;
68843;SDS011;55850;51.244;6.824;2022-07-11T22:59:14;3.77;;;2.13;;
68843;SDS011;55850;51.244;6.824;2022-07-11T23:04:23;3.10;;;1.60;;
68843;SDS011;55850;51.244;6.824;2022-07-11T23:09:29;3.63;;;1.48;;
68843;SDS011;55850;51.244;6.824;2022-07-11T23:14:37;2.42;;;1.75;;
68843;SDS011;55850;51.244;6.824;2022-07-11T23:19:45;2.87;;;1.63;;
68843;SDS011;55850;51.244;6.824;2022-07-11T23:24:51;2.30;;;1.70;;
68843;SDS011;55850;51.244;6.824;2022-07-11T23:29:59;1.90;;;1.63;;
68843;SDS011;55850;51.244;6.824;2022-07-11T23:35:05;1.67;;;1.30;;
68843;SDS011;55850;51.244;6.824;2022-07-11T23:40:12;1.80;;;1.45;;
68843;SDS011;55850;51.244;6.824;2022-07-11T23:45:20;2.40;;;1.70;;
68843;SDS011;55850;51.244;6.824;2022-07-11T23:50:25;2.87;;;1.70;;
68843;SDS011;55850;51.244;6.824;2022-07-11T23:55:31;2.43;;;1.53;;
